sensor_id;sensor_type;location;lat;lon;timestamp;temperature;humidity
27164;DHT22;14685;50.618;7.024;2022-08-19T00:01:23;23.30;99.90
27164;DHT22;14685;50.618;7.024;2022-08-19T00:04:00;23.30;99.90
27164;DHT22;14685;50.618;7.024;2022-08-19T00:06:28;23.30;99.90
27164;DHT22;14685;50.618;7.024;2022-08-19T00:08:57;23.30;99.90
27164;DHT22;14685;50.618;7.024;2022-08-19T00:11:24;23.30;99.90
27164;DHT22;14685;50.618;7.024;2022-08-19T00:13:54;23.30;99.90
27164;DHT22;14685;50.618;7.024;2022-08-19T00:16:24;23.30;99.90
27164;DHT22;14685;50.618;7.024;2022-08-19T00:18:53;23.30;99.90
27164;DHT22;14685;50.618;7.024;2022-08-19T00:21:20;23.30;99.90
27164;DHT22;14685;50.618;7.024;2022-08-19T00:23:47;23.30;99.90
27164;DHT22;14685;50.618;7.024;2022-08-19T00:26:14;23.20;99.90
27164;DHT22;14685;50.618;7.024;2022-08-19T00:28:41;23.30;99.90
27164;DHT22;14685;50.618;7.024;2022-08-19T00:31:09;23.30;99.90
27164;DHT22;14685;50.618;7.024;2022-08-19T00:33:36;23.30;99.90
27164;DHT22;14685;50.618;7.024;2022-08-19T00:36:06;23.20;99.90
27164;DHT22;14685;50.618;7.024;2022-08-19T00:38:35;23.20;99.90
27164;DHT22;14685;50.618;7.024;2022-08-19T00:41:05;23.30;99.90
27164;DHT22;14685;50.618;7.024;2022-08-19T00:43:32;23.20;99.90
27164;DHT22;14685;50.618;7.024;2022-08-19T00:45:59;23.20;99.90
27164;DHT22;14685;50.618;7.024;2022-08-19T00:48:27;23.10;99.90
27164;DHT22;14685;50.618;7.024;2022-08-19T00:50:55;23.20;99.90
27164;DHT22;14685;50.618;7.024;2022-08-19T00:53:24;23.10;99.90
27164;DHT22;14685;50.618;7.024;2022-08-19T00:55:55;23.10;99.90
27164;DHT22;14685;50.618;7.024;2022-08-19T00:58:29;23.10;99.90
27164;DHT22;14685;50.618;7.024;2022-08-19T01:00:56;23.00;99.90
27164;DHT22;14685;50.618;7.024;2022-08-19T01:03:23;23.00;99.90
27164;DHT22;14685;50.618;7.024;2022-08-19T01:05:51;23.00;99.90
27164;DHT22;14685;50.618;7.024;2022-08-19T01:08:20;22.90;99.90
27164;DHT22;14685;50.618;7.024;2022-08-19T01:10:51;22.90;99.90
27164;DHT22;14685;50.618;7.024;2022-08-19T01:13:21;22.70;99.90
27164;DHT22;14685;50.618;7.024;2022-08-19T01:15:54;22.80;99.90
27164;DHT22;14685;50.618;7.024;2022-08-19T01:18:21;22.80;99.90
27164;DHT22;14685;50.618;7.024;2022-08-19T01:20:50;22.80;99.90
27164;DHT22;14685;50.618;7.024;2022-08-19T01:23:18;22.80;99.90
27164;DHT22;14685;50.618;7.024;2022-08-19T01:25:51;22.80;99.90
27164;DHT22;14685;50.618;7.024;2022-08-19T01:28:25;22.80;99.90
27164;DHT22;14685;50.618;7.024;2022-08-19T01:31:07;22.80;99.90
27164;DHT22;14685;50.618;7.024;2022-08-19T01:33:55;22.70;99.90
27164;DHT22;14685;50.618;7.024;2022-08-19T01:36:36;22.80;99.90
27164;DHT22;14685;50.618;7.024;2022-08-19T01:39:08;22.70;99.90
27164;DHT22;14685;50.618;7.024;2022-08-19T01:41:35;22.70;99.90
27164;DHT22;14685;50.618;7.024;2022-08-19T01:44:04;22.70;99.90
27164;DHT22;14685;50.618;7.024;2022-08-19T01:46:46;22.70;99.90
27164;DHT22;14685;50.618;7.024;2022-08-19T01:49:14;22.60;99.90
27164;DHT22;14685;50.618;7.024;2022-08-19T01:51:41;22.60;99.90
27164;DHT22;14685;50.618;7.024;2022-08-19T01:54:10;22.60;99.90
27164;DHT22;14685;50.618;7.024;2022-08-19T01:56:38;22.60;99.90
27164;DHT22;14685;50.618;7.024;2022-08-19T01:59:10;22.50;99.90
27164;DHT22;14685;50.618;7.024;2022-08-19T02:01:37;22.50;99.90
27164;DHT22;14685;50.618;7.024;2022-08-19T02:04:04;22.50;99.90
27164;DHT22;14685;50.618;7.024;2022-08-19T02:06:32;22.40;99.90
27164;DHT22;14685;50.618;7.024;2022-08-19T02:09:00;22.40;99.90
27164;DHT22;14685;50.618;7.024;2022-08-19T02:11:31;22.40;99.90
27164;DHT22;14685;50.618;7.024;2022-08-19T02:13:59;22.40;99.90
27164;DHT22;14685;50.618;7.024;2022-08-19T02:16:26;22.30;99.90
27164;DHT22;14685;50.618;7.024;2022-08-19T02:18:53;22.30;99.90
27164;DHT22;14685;50.618;7.024;2022-08-19T02:21:23;22.40;99.90
27164;DHT22;14685;50.618;7.024;2022-08-19T02:23:51;22.30;99.90
27164;DHT22;14685;50.618;7.024;2022-08-19T02:26:18;22.30;99.90
27164;DHT22;14685;50.618;7.024;2022-08-19T02:28:46;22.30;99.90
27164;DHT22;14685;50.618;7.024;2022-08-19T02:31:15;22.20;99.90
27164;DHT22;14685;50.618;7.024;2022-08-19T02:33:43;22.20;99.90
27164;DHT22;14685;50.618;7.024;2022-08-19T02:36:11;22.20;99.90
27164;DHT22;14685;50.618;7.024;2022-08-19T02:38:41;22.10;99.90
27164;DHT22;14685;50.618;7.024;2022-08-19T02:41:16;22.20;99.90
27164;DHT22;14685;50.618;7.024;2022-08-19T02:43:44;22.10;99.90
27164;DHT22;14685;50.618;7.024;2022-08-19T02:46:32;22.10;99.90
27164;DHT22;14685;50.618;7.024;2022-08-19T02:49:06;22.10;99.90
27164;DHT22;14685;50.618;7.024;2022-08-19T02:51:40;22.10;99.90
27164;DHT22;14685;50.618;7.024;2022-08-19T02:54:09;22.10;99.90
27164;DHT22;14685;50.618;7.024;2022-08-19T02:56:37;22.00;99.90
27164;DHT22;14685;50.618;7.024;2022-08-19T02:59:05;22.00;99.90
27164;DHT22;14685;50.618;7.024;2022-08-19T03:01:37;22.00;99.90
27164;DHT22;14685;50.618;7.024;2022-08-19T03:04:12;22.00;99.90
27164;DHT22;14685;50.618;7.024;2022-08-19T03:06:42;22.00;99.90
27164;DHT22;14685;50.618;7.024;2022-08-19T03:09:10;22.00;99.90
27164;DHT22;14685;50.618;7.024;2022-08-19T03:11:38;21.90;99.90
27164;DHT22;14685;50.618;7.024;2022-08-19T03:14:07;21.90;99.90
27164;DHT22;14685;50.618;7.024;2022-08-19T03:16:43;21.90;99.90
27164;DHT22;14685;50.618;7.024;2022-08-19T03:19:11;21.90;99.90
27164;DHT22;14685;50.618;7.024;2022-08-19T03:21:39;21.90;99.90
27164;DHT22;14685;50.618;7.024;2022-08-19T03:24:07;21.90;99.90
27164;DHT22;14685;50.618;7.024;2022-08-19T03:26:39;21.90;99.90
27164;DHT22;14685;50.618;7.024;2022-08-19T03:29:06;21.90;99.90
27164;DHT22;14685;50.618;7.024;2022-08-19T03:31:35;21.90;99.90
27164;DHT22;14685;50.618;7.024;2022-08-19T03:34:21;21.90;99.90
27164;DHT22;14685;50.618;7.024;2022-08-19T03:36:48;21.80;99.90
27164;DHT22;14685;50.618;7.024;2022-08-19T03:39:15;21.80;99.90
27164;DHT22;14685;50.618;7.024;2022-08-19T03:41:44;21.80;99.90
27164;DHT22;14685;50.618;7.024;2022-08-19T03:44:16;21.80;99.90
27164;DHT22;14685;50.618;7.024;2022-08-19T03:46:57;21.80;99.90
27164;DHT22;14685;50.618;7.024;2022-08-19T03:49:26;21.80;99.90
27164;DHT22;14685;50.618;7.024;2022-08-19T03:51:56;21.70;99.90
27164;DHT22;14685;50.618;7.024;2022-08-19T03:54:24;21.80;99.90
27164;DHT22;14685;50.618;7.024;2022-08-19T03:56:53;21.80;99.90
27164;DHT22;14685;50.618;7.024;2022-08-19T03:59:24;21.80;99.90
27164;DHT22;14685;50.618;7.024;2022-08-19T04:01:55;21.70;99.90
27164;DHT22;14685;50.618;7.024;2022-08-19T04:04:22;21.80;99.90
27164;DHT22;14685;50.618;7.024;2022-08-19T04:09:18;21.80;99.90
27164;DHT22;14685;50.618;7.024;2022-08-19T04:11:50;21.70;99.90
27164;DHT22;14685;50.618;7.024;2022-08-19T04:14:25;21.80;99.90
27164;DHT22;14685;50.618;7.024;2022-08-19T04:16:52;21.70;99.90
27164;DHT22;14685;50.618;7.024;2022-08-19T04:19:20;21.70;99.90
27164;DHT22;14685;50.618;7.024;2022-08-19T04:21:49;21.70;99.90
27164;DHT22;14685;50.618;7.024;2022-08-19T04:24:17;21.70;99.90
27164;DHT22;14685;50.618;7.024;2022-08-19T04:26:45;21.70;99.90
27164;DHT22;14685;50.618;7.024;2022-08-19T04:29:16;21.70;99.90
27164;DHT22;14685;50.618;7.024;2022-08-19T04:31:44;21.70;99.90
27164;DHT22;14685;50.618;7.024;2022-08-19T04:34:14;21.70;99.90
27164;DHT22;14685;50.618;7.024;2022-08-19T04:36:42;21.60;99.90
27164;DHT22;14685;50.618;7.024;2022-08-19T04:39:16;21.60;99.90
27164;DHT22;14685;50.618;7.024;2022-08-19T04:41:44;21.60;99.90
27164;DHT22;14685;50.618;7.024;2022-08-19T04:44:31;21.60;99.90
27164;DHT22;14685;50.618;7.024;2022-08-19T04:47:01;21.70;99.90
27164;DHT22;14685;50.618;7.024;2022-08-19T04:49:37;21.60;99.90
27164;DHT22;14685;50.618;7.024;2022-08-19T04:52:04;21.60;99.90
27164;DHT22;14685;50.618;7.024;2022-08-19T04:54:30;21.60;99.90
27164;DHT22;14685;50.618;7.024;2022-08-19T04:57:06;21.70;99.90
27164;DHT22;14685;50.618;7.024;2022-08-19T04:59:35;21.60;99.90
27164;DHT22;14685;50.618;7.024;2022-08-19T05:02:03;21.60;99.90
27164;DHT22;14685;50.618;7.024;2022-08-19T05:04:30;21.60;99.90
27164;DHT22;14685;50.618;7.024;2022-08-19T05:06:59;21.50;99.90
27164;DHT22;14685;50.618;7.024;2022-08-19T05:09:29;21.50;99.90
27164;DHT22;14685;50.618;7.024;2022-08-19T05:12:17;21.40;99.90
27164;DHT22;14685;50.618;7.024;2022-08-19T05:14:44;21.40;99.90
27164;DHT22;14685;50.618;7.024;2022-08-19T05:17:14;21.40;99.90
27164;DHT22;14685;50.618;7.024;2022-08-19T05:20:01;21.30;99.90
27164;DHT22;14685;50.618;7.024;2022-08-19T05:22:47;21.30;99.90
27164;DHT22;14685;50.618;7.024;2022-08-19T05:25:17;21.30;99.90
27164;DHT22;14685;50.618;7.024;2022-08-19T05:27:48;21.30;99.90
27164;DHT22;14685;50.618;7.024;2022-08-19T05:30:15;21.30;99.90
27164;DHT22;14685;50.618;7.024;2022-08-19T05:32:43;21.30;99.90
27164;DHT22;14685;50.618;7.024;2022-08-19T05:35:10;21.30;99.90
27164;DHT22;14685;50.618;7.024;2022-08-19T05:37:38;21.30;99.90
27164;DHT22;14685;50.618;7.024;2022-08-19T05:40:12;21.30;99.90
27164;DHT22;14685;50.618;7.024;2022-08-19T05:42:39;21.30;99.90
27164;DHT22;14685;50.618;7.024;2022-08-19T05:45:06;21.30;99.90
27164;DHT22;14685;50.618;7.024;2022-08-19T05:47:33;21.40;99.90
27164;DHT22;14685;50.618;7.024;2022-08-19T05:50:08;21.40;99.90
27164;DHT22;14685;50.618;7.024;2022-08-19T05:52:36;21.40;99.90
27164;DHT22;14685;50.618;7.024;2022-08-19T05:55:09;21.40;99.90
27164;DHT22;14685;50.618;7.024;2022-08-19T05:57:37;21.40;99.90
27164;DHT22;14685;50.618;7.024;2022-08-19T06:00:05;21.40;99.90
27164;DHT22;14685;50.618;7.024;2022-08-19T06:02:36;21.50;99.90
27164;DHT22;14685;50.618;7.024;2022-08-19T06:05:04;21.50;99.90
27164;DHT22;14685;50.618;7.024;2022-08-19T06:07:34;21.50;99.90
27164;DHT22;14685;50.618;7.024;2022-08-19T06:10:05;21.50;99.90
27164;DHT22;14685;50.618;7.024;2022-08-19T06:12:34;21.60;99.90
27164;DHT22;14685;50.618;7.024;2022-08-19T06:15:10;21.60;99.90
27164;DHT22;14685;50.618;7.024;2022-08-19T06:17:37;21.60;99.90
27164;DHT22;14685;50.618;7.024;2022-08-19T06:20:06;21.60;99.90
27164;DHT22;14685;50.618;7.024;2022-08-19T06:22:52;21.70;99.90
27164;DHT22;14685;50.618;7.024;2022-08-19T06:25:20;21.70;99.90
27164;DHT22;14685;50.618;7.024;2022-08-19T06:27:47;21.70;99.90
27164;DHT22;14685;50.618;7.024;2022-08-19T06:30:35;21.80;99.90
27164;DHT22;14685;50.618;7.024;2022-08-19T06:33:02;21.90;99.90
27164;DHT22;14685;50.618;7.024;2022-08-19T06:35:29;21.80;99.90
27164;DHT22;14685;50.618;7.024;2022-08-19T06:37:57;21.90;99.90
27164;DHT22;14685;50.618;7.024;2022-08-19T06:40:24;22.00;99.90
27164;DHT22;14685;50.618;7.024;2022-08-19T06:42:52;22.00;99.90
27164;DHT22;14685;50.618;7.024;2022-08-19T06:45:20;22.10;99.90
27164;DHT22;14685;50.618;7.024;2022-08-19T06:48:11;22.20;99.90
27164;DHT22;14685;50.618;7.024;2022-08-19T06:51:06;22.30;99.90
27164;DHT22;14685;50.618;7.024;2022-08-19T06:53:34;22.50;99.90
27164;DHT22;14685;50.618;7.024;2022-08-19T06:56:04;22.60;99.90
27164;DHT22;14685;50.618;7.024;2022-08-19T06:58:31;22.70;99.90
27164;DHT22;14685;50.618;7.024;2022-08-19T07:01:03;22.90;99.90
27164;DHT22;14685;50.618;7.024;2022-08-19T07:03:36;22.90;99.90
27164;DHT22;14685;50.618;7.024;2022-08-19T07:06:07;23.00;99.90
27164;DHT22;14685;50.618;7.024;2022-08-19T07:08:47;23.10;99.90
27164;DHT22;14685;50.618;7.024;2022-08-19T07:11:16;23.20;99.90
27164;DHT22;14685;50.618;7.024;2022-08-19T07:13:49;23.30;99.90
27164;DHT22;14685;50.618;7.024;2022-08-19T07:16:19;23.30;99.90
27164;DHT22;14685;50.618;7.024;2022-08-19T07:18:55;23.40;99.90
27164;DHT22;14685;50.618;7.024;2022-08-19T07:21:26;23.40;99.90
27164;DHT22;14685;50.618;7.024;2022-08-19T07:23:58;23.50;99.90
27164;DHT22;14685;50.618;7.024;2022-08-19T07:26:37;23.60;99.90
27164;DHT22;14685;50.618;7.024;2022-08-19T07:29:08;23.60;99.90
27164;DHT22;14685;50.618;7.024;2022-08-19T07:31:35;23.80;99.90
27164;DHT22;14685;50.618;7.024;2022-08-19T07:34:05;23.80;99.90
27164;DHT22;14685;50.618;7.024;2022-08-19T07:36:38;23.90;99.90
27164;DHT22;14685;50.618;7.024;2022-08-19T07:39:11;23.90;99.90
27164;DHT22;14685;50.618;7.024;2022-08-19T07:41:39;24.10;99.90
27164;DHT22;14685;50.618;7.024;2022-08-19T07:44:07;24.30;99.90
27164;DHT22;14685;50.618;7.024;2022-08-19T07:46:37;24.60;99.90
27164;DHT22;14685;50.618;7.024;2022-08-19T07:49:06;24.80;99.90
27164;DHT22;14685;50.618;7.024;2022-08-19T07:51:34;24.90;99.90
27164;DHT22;14685;50.618;7.024;2022-08-19T07:54:02;25.00;99.90
27164;DHT22;14685;50.618;7.024;2022-08-19T07:58:59;25.20;99.90
27164;DHT22;14685;50.618;7.024;2022-08-19T08:01:27;25.30;99.90
27164;DHT22;14685;50.618;7.024;2022-08-19T08:03:56;25.40;99.90
27164;DHT22;14685;50.618;7.024;2022-08-19T08:06:43;25.50;99.90
27164;DHT22;14685;50.618;7.024;2022-08-19T08:09:35;25.60;99.90
27164;DHT22;14685;50.618;7.024;2022-08-19T08:14:57;26.00;99.90
27164;DHT22;14685;50.618;7.024;2022-08-19T08:17:26;26.20;99.90
27164;DHT22;14685;50.618;7.024;2022-08-19T08:20:14;26.40;99.90
27164;DHT22;14685;50.618;7.024;2022-08-19T08:22:45;26.60;99.90
27164;DHT22;14685;50.618;7.024;2022-08-19T08:25:32;26.80;99.90
27164;DHT22;14685;50.618;7.024;2022-08-19T08:28:01;26.90;99.90
27164;DHT22;14685;50.618;7.024;2022-08-19T08:30:30;27.00;99.90
27164;DHT22;14685;50.618;7.024;2022-08-19T08:32:59;27.10;99.90
27164;DHT22;14685;50.618;7.024;2022-08-19T08:35:28;27.20;99.90
27164;DHT22;14685;50.618;7.024;2022-08-19T08:37:55;27.30;99.90
27164;DHT22;14685;50.618;7.024;2022-08-19T08:40:57;27.50;99.90
27164;DHT22;14685;50.618;7.024;2022-08-19T08:43:36;27.70;99.90
27164;DHT22;14685;50.618;7.024;2022-08-19T08:46:13;27.90;99.90
27164;DHT22;14685;50.618;7.024;2022-08-19T08:49:31;28.00;99.90
27164;DHT22;14685;50.618;7.024;2022-08-19T08:54:45;28.40;99.90
27164;DHT22;14685;50.618;7.024;2022-08-19T08:57:35;28.50;99.20
27164;DHT22;14685;50.618;7.024;2022-08-19T09:00:10;28.50;98.50
27164;DHT22;14685;50.618;7.024;2022-08-19T09:02:42;28.60;99.10
27164;DHT22;14685;50.618;7.024;2022-08-19T09:05:10;28.80;98.90
27164;DHT22;14685;50.618;7.024;2022-08-19T09:07:53;28.80;98.40
27164;DHT22;14685;50.618;7.024;2022-08-19T09:10:37;28.90;97.30
27164;DHT22;14685;50.618;7.024;2022-08-19T09:16:21;29.10;97.10
27164;DHT22;14685;50.618;7.024;2022-08-19T09:19:05;29.30;97.20
27164;DHT22;14685;50.618;7.024;2022-08-19T09:21:34;29.40;96.00
27164;DHT22;14685;50.618;7.024;2022-08-19T09:24:02;29.40;96.00
27164;DHT22;14685;50.618;7.024;2022-08-19T09:26:31;29.40;95.50
27164;DHT22;14685;50.618;7.024;2022-08-19T09:29:18;29.50;95.60
27164;DHT22;14685;50.618;7.024;2022-08-19T09:31:50;29.60;94.50
27164;DHT22;14685;50.618;7.024;2022-08-19T09:34:17;29.70;94.40
27164;DHT22;14685;50.618;7.024;2022-08-19T09:36:48;29.80;94.30
27164;DHT22;14685;50.618;7.024;2022-08-19T09:39:20;29.90;94.10
27164;DHT22;14685;50.618;7.024;2022-08-19T09:41:48;30.00;94.30
27164;DHT22;14685;50.618;7.024;2022-08-19T09:44:17;30.10;93.80
27164;DHT22;14685;50.618;7.024;2022-08-19T09:46:44;30.20;92.00
27164;DHT22;14685;50.618;7.024;2022-08-19T09:49:15;30.10;91.00
27164;DHT22;14685;50.618;7.024;2022-08-19T09:51:44;30.20;92.60
27164;DHT22;14685;50.618;7.024;2022-08-19T09:54:17;30.30;91.40
27164;DHT22;14685;50.618;7.024;2022-08-19T09:56:49;30.30;91.30
27164;DHT22;14685;50.618;7.024;2022-08-19T09:59:16;30.30;91.50
27164;DHT22;14685;50.618;7.024;2022-08-19T10:01:43;30.30;91.10
27164;DHT22;14685;50.618;7.024;2022-08-19T10:04:11;30.30;90.60
27164;DHT22;14685;50.618;7.024;2022-08-19T10:09:23;30.40;91.40
27164;DHT22;14685;50.618;7.024;2022-08-19T10:12:01;30.50;91.60
27164;DHT22;14685;50.618;7.024;2022-08-19T10:14:28;30.50;91.20
27164;DHT22;14685;50.618;7.024;2022-08-19T10:16:55;30.50;90.00
27164;DHT22;14685;50.618;7.024;2022-08-19T10:19:24;30.60;90.60
27164;DHT22;14685;50.618;7.024;2022-08-19T10:21:53;30.60;89.80
27164;DHT22;14685;50.618;7.024;2022-08-19T10:24:25;30.60;90.40
27164;DHT22;14685;50.618;7.024;2022-08-19T10:26:54;30.60;88.80
27164;DHT22;14685;50.618;7.024;2022-08-19T10:29:26;30.50;90.20
27164;DHT22;14685;50.618;7.024;2022-08-19T10:32:00;30.40;89.50
27164;DHT22;14685;50.618;7.024;2022-08-19T10:34:29;30.50;90.20
27164;DHT22;14685;50.618;7.024;2022-08-19T10:36:57;30.50;89.40
27164;DHT22;14685;50.618;7.024;2022-08-19T10:39:28;30.50;88.80
27164;DHT22;14685;50.618;7.024;2022-08-19T10:41:57;30.60;90.00
27164;DHT22;14685;50.618;7.024;2022-08-19T10:44:24;30.50;88.00
27164;DHT22;14685;50.618;7.024;2022-08-19T10:46:58;30.50;88.80
27164;DHT22;14685;50.618;7.024;2022-08-19T10:49:25;30.40;89.40
27164;DHT22;14685;50.618;7.024;2022-08-19T10:51:54;30.40;89.30
27164;DHT22;14685;50.618;7.024;2022-08-19T10:54:46;30.50;87.90
27164;DHT22;14685;50.618;7.024;2022-08-19T10:57:34;30.60;88.60
27164;DHT22;14685;50.618;7.024;2022-08-19T11:00:21;30.60;87.70
27164;DHT22;14685;50.618;7.024;2022-08-19T11:02:49;30.60;87.30
27164;DHT22;14685;50.618;7.024;2022-08-19T11:05:17;30.70;86.00
27164;DHT22;14685;50.618;7.024;2022-08-19T11:07:44;30.70;86.80
27164;DHT22;14685;50.618;7.024;2022-08-19T11:10:13;30.70;87.90
27164;DHT22;14685;50.618;7.024;2022-08-19T11:12:46;30.80;87.00
27164;DHT22;14685;50.618;7.024;2022-08-19T11:15:13;30.80;87.30
27164;DHT22;14685;50.618;7.024;2022-08-19T11:17:40;30.80;85.70
27164;DHT22;14685;50.618;7.024;2022-08-19T11:20:08;30.80;86.50
27164;DHT22;14685;50.618;7.024;2022-08-19T11:22:35;30.80;86.90
27164;DHT22;14685;50.618;7.024;2022-08-19T11:25:07;30.70;86.50
27164;DHT22;14685;50.618;7.024;2022-08-19T11:27:37;30.60;84.70
27164;DHT22;14685;50.618;7.024;2022-08-19T11:30:04;30.70;85.70
27164;DHT22;14685;50.618;7.024;2022-08-19T11:32:33;30.70;84.30
27164;DHT22;14685;50.618;7.024;2022-08-19T11:35:00;30.60;83.00
27164;DHT22;14685;50.618;7.024;2022-08-19T11:37:27;30.70;84.50
27164;DHT22;14685;50.618;7.024;2022-08-19T11:39:54;30.60;83.20
27164;DHT22;14685;50.618;7.024;2022-08-19T11:42:20;30.60;84.70
27164;DHT22;14685;50.618;7.024;2022-08-19T11:45:06;30.60;85.50
27164;DHT22;14685;50.618;7.024;2022-08-19T11:47:33;30.60;85.40
27164;DHT22;14685;50.618;7.024;2022-08-19T11:50:00;30.70;85.00
27164;DHT22;14685;50.618;7.024;2022-08-19T11:52:27;30.70;86.00
27164;DHT22;14685;50.618;7.024;2022-08-19T11:54:55;30.70;85.50
27164;DHT22;14685;50.618;7.024;2022-08-19T11:57:22;30.70;84.50
27164;DHT22;14685;50.618;7.024;2022-08-19T11:59:52;30.70;84.90
27164;DHT22;14685;50.618;7.024;2022-08-19T12:02:19;30.60;84.30
27164;DHT22;14685;50.618;7.024;2022-08-19T12:04:46;30.60;84.70
27164;DHT22;14685;50.618;7.024;2022-08-19T12:07:13;30.60;84.30
27164;DHT22;14685;50.618;7.024;2022-08-19T12:09:40;30.50;84.10
27164;DHT22;14685;50.618;7.024;2022-08-19T12:12:08;30.50;84.90
27164;DHT22;14685;50.618;7.024;2022-08-19T12:14:35;30.60;84.60
27164;DHT22;14685;50.618;7.024;2022-08-19T12:17:02;30.60;84.30
27164;DHT22;14685;50.618;7.024;2022-08-19T12:19:31;30.60;84.20
27164;DHT22;14685;50.618;7.024;2022-08-19T12:22:00;30.60;85.30
27164;DHT22;14685;50.618;7.024;2022-08-19T12:24:29;30.70;85.90
27164;DHT22;14685;50.618;7.024;2022-08-19T12:26:57;30.60;84.70
27164;DHT22;14685;50.618;7.024;2022-08-19T12:29:28;30.60;85.70
27164;DHT22;14685;50.618;7.024;2022-08-19T12:31:57;30.60;85.70
27164;DHT22;14685;50.618;7.024;2022-08-19T12:34:30;30.50;85.80
27164;DHT22;14685;50.618;7.024;2022-08-19T12:36:57;30.50;85.00
27164;DHT22;14685;50.618;7.024;2022-08-19T12:39:25;30.50;84.90
27164;DHT22;14685;50.618;7.024;2022-08-19T12:41:52;30.50;86.20
27164;DHT22;14685;50.618;7.024;2022-08-19T12:44:21;30.50;85.30
27164;DHT22;14685;50.618;7.024;2022-08-19T12:46:57;30.50;84.90
27164;DHT22;14685;50.618;7.024;2022-08-19T12:49:24;30.40;86.10
27164;DHT22;14685;50.618;7.024;2022-08-19T12:52:11;30.50;86.30
27164;DHT22;14685;50.618;7.024;2022-08-19T12:54:42;30.40;86.50
27164;DHT22;14685;50.618;7.024;2022-08-19T12:57:09;30.40;86.20
27164;DHT22;14685;50.618;7.024;2022-08-19T12:59:37;30.40;86.20
27164;DHT22;14685;50.618;7.024;2022-08-19T13:02:04;30.30;86.30
27164;DHT22;14685;50.618;7.024;2022-08-19T13:04:32;30.40;86.10
27164;DHT22;14685;50.618;7.024;2022-08-19T13:07:02;30.40;86.70
27164;DHT22;14685;50.618;7.024;2022-08-19T13:09:28;30.30;84.90
27164;DHT22;14685;50.618;7.024;2022-08-19T13:11:55;30.30;85.80
27164;DHT22;14685;50.618;7.024;2022-08-19T13:14:23;30.30;85.20
27164;DHT22;14685;50.618;7.024;2022-08-19T13:16:52;30.40;84.50
27164;DHT22;14685;50.618;7.024;2022-08-19T13:19:19;30.40;84.00
27164;DHT22;14685;50.618;7.024;2022-08-19T13:21:49;30.30;82.10
27164;DHT22;14685;50.618;7.024;2022-08-19T13:24:16;30.30;82.50
27164;DHT22;14685;50.618;7.024;2022-08-19T13:26:43;30.20;80.30
27164;DHT22;14685;50.618;7.024;2022-08-19T13:29:10;30.20;81.70
27164;DHT22;14685;50.618;7.024;2022-08-19T13:31:55;30.20;81.70
27164;DHT22;14685;50.618;7.024;2022-08-19T13:34:44;30.10;78.80
27164;DHT22;14685;50.618;7.024;2022-08-19T13:37:13;30.10;79.90
27164;DHT22;14685;50.618;7.024;2022-08-19T13:39:39;30.10;78.50
27164;DHT22;14685;50.618;7.024;2022-08-19T13:42:06;30.00;80.30
27164;DHT22;14685;50.618;7.024;2022-08-19T13:44:33;30.00;80.00
27164;DHT22;14685;50.618;7.024;2022-08-19T13:47:01;30.00;80.10
27164;DHT22;14685;50.618;7.024;2022-08-19T13:49:33;30.00;79.90
27164;DHT22;14685;50.618;7.024;2022-08-19T13:52:00;30.00;80.70
27164;DHT22;14685;50.618;7.024;2022-08-19T13:54:27;30.00;78.40
27164;DHT22;14685;50.618;7.024;2022-08-19T13:56:54;30.00;79.60
27164;DHT22;14685;50.618;7.024;2022-08-19T13:59:21;30.00;80.10
27164;DHT22;14685;50.618;7.024;2022-08-19T14:01:47;29.90;78.20
27164;DHT22;14685;50.618;7.024;2022-08-19T14:04:14;29.90;79.00
27164;DHT22;14685;50.618;7.024;2022-08-19T14:06:41;29.90;79.80
27164;DHT22;14685;50.618;7.024;2022-08-19T14:09:08;29.90;79.60
27164;DHT22;14685;50.618;7.024;2022-08-19T14:11:35;29.90;78.50
27164;DHT22;14685;50.618;7.024;2022-08-19T14:14:01;29.90;79.60
27164;DHT22;14685;50.618;7.024;2022-08-19T14:16:28;29.90;78.80
27164;DHT22;14685;50.618;7.024;2022-08-19T14:18:56;29.90;79.20
27164;DHT22;14685;50.618;7.024;2022-08-19T14:21:24;29.80;80.60
27164;DHT22;14685;50.618;7.024;2022-08-19T14:23:51;29.80;79.40
27164;DHT22;14685;50.618;7.024;2022-08-19T14:26:19;29.80;79.80
27164;DHT22;14685;50.618;7.024;2022-08-19T14:28:47;29.80;79.50
27164;DHT22;14685;50.618;7.024;2022-08-19T14:31:14;29.70;80.50
27164;DHT22;14685;50.618;7.024;2022-08-19T14:33:46;29.80;80.30
27164;DHT22;14685;50.618;7.024;2022-08-19T14:36:13;29.80;80.20
27164;DHT22;14685;50.618;7.024;2022-08-19T14:38:39;29.70;80.30
27164;DHT22;14685;50.618;7.024;2022-08-19T14:41:07;29.80;80.30
27164;DHT22;14685;50.618;7.024;2022-08-19T14:43:34;29.70;80.00
27164;DHT22;14685;50.618;7.024;2022-08-19T14:46:01;29.70;79.50
27164;DHT22;14685;50.618;7.024;2022-08-19T14:48:28;29.60;80.20
27164;DHT22;14685;50.618;7.024;2022-08-19T14:50:55;29.60;81.20
27164;DHT22;14685;50.618;7.024;2022-08-19T14:53:21;29.50;81.40
27164;DHT22;14685;50.618;7.024;2022-08-19T14:55:48;29.50;81.10
27164;DHT22;14685;50.618;7.024;2022-08-19T14:58:15;29.50;80.40
27164;DHT22;14685;50.618;7.024;2022-08-19T15:00:56;29.50;81.40
27164;DHT22;14685;50.618;7.024;2022-08-19T15:03:23;29.50;81.60
27164;DHT22;14685;50.618;7.024;2022-08-19T15:05:50;29.50;81.70
27164;DHT22;14685;50.618;7.024;2022-08-19T15:08:17;29.40;80.60
27164;DHT22;14685;50.618;7.024;2022-08-19T15:10:43;29.40;81.30
27164;DHT22;14685;50.618;7.024;2022-08-19T15:13:10;29.40;81.00
27164;DHT22;14685;50.618;7.024;2022-08-19T15:15:37;29.40;81.20
27164;DHT22;14685;50.618;7.024;2022-08-19T15:18:05;29.30;80.90
27164;DHT22;14685;50.618;7.024;2022-08-19T15:20:32;29.30;81.10
27164;DHT22;14685;50.618;7.024;2022-08-19T15:22:58;29.30;81.10
27164;DHT22;14685;50.618;7.024;2022-08-19T15:25:26;29.20;81.50
27164;DHT22;14685;50.618;7.024;2022-08-19T15:27:53;29.20;81.80
27164;DHT22;14685;50.618;7.024;2022-08-19T15:30:22;29.20;81.50
27164;DHT22;14685;50.618;7.024;2022-08-19T15:32:50;29.20;81.40
27164;DHT22;14685;50.618;7.024;2022-08-19T15:35:17;29.20;81.70
27164;DHT22;14685;50.618;7.024;2022-08-19T15:37:47;29.10;82.30
27164;DHT22;14685;50.618;7.024;2022-08-19T15:40:14;29.10;81.20
27164;DHT22;14685;50.618;7.024;2022-08-19T15:42:41;29.10;82.20
27164;DHT22;14685;50.618;7.024;2022-08-19T15:45:08;29.10;82.40
27164;DHT22;14685;50.618;7.024;2022-08-19T15:47:35;29.00;82.30
27164;DHT22;14685;50.618;7.024;2022-08-19T15:50:10;29.00;83.30
27164;DHT22;14685;50.618;7.024;2022-08-19T15:52:44;29.00;82.90
27164;DHT22;14685;50.618;7.024;2022-08-19T15:55:19;28.90;83.40
27164;DHT22;14685;50.618;7.024;2022-08-19T15:58:00;29.00;84.20
27164;DHT22;14685;50.618;7.024;2022-08-19T16:00:55;29.00;84.40
27164;DHT22;14685;50.618;7.024;2022-08-19T16:03:41;28.90;84.60
27164;DHT22;14685;50.618;7.024;2022-08-19T16:06:26;28.90;84.50
27164;DHT22;14685;50.618;7.024;2022-08-19T16:08:58;28.90;85.10